Time;durP1;ratioP1;P1;durP2;ratioP2;P2;SDS_P1;SDS_P2;PMS_P1;PMS_P2;Temp;Humidity;BMP_temperature;BMP_pressure;BME280_temperature;BME280_humidity;BME280_pressure;Samples;Min_cycle;Max_cycle;Signal;HPM_P1;HPM_P2
2022/06/23 00:01:04;;;;;;;3.50;1.60;;;;;;;12.32;51.41;101482.28;5005894;28;20040;-78
2022/06/23 00:03:35;;;;;;;2.20;1.17;;;;;;;12.27;51.27;101488.53;5001663;28;20169;-77
2022/06/23 00:06:04;;;;;;;3.15;1.50;;;;;;;12.25;51.53;101487.75;5018301;28;21140;-77
2022/06/23 00:08:30;;;;;;;4.57;1.85;;;;;;;12.23;51.57;101489.56;4985273;28;20038;-78
2022/06/23 00:11:00;;;;;;;3.97;2.53;;;;;;;12.23;51.64;101493.97;5007072;28;20054;-78
2022/06/23 00:13:35;;;;;;;2.92;1.73;;;;;;;12.22;51.25;101485.25;5005841;28;20042;-79
2022/06/23 00:16:03;;;;;;;2.47;1.95;;;;;;;12.24;51.45;101486.00;5004808;28;20058;-80
2022/06/23 00:18:36;;;;;;;3.70;2.05;;;;;;;12.22;51.22;101494.84;4961762;28;20142;-78
2022/06/23 00:21:04;;;;;;;5.85;2.67;;;;;;;12.23;51.13;101494.81;4988087;28;20049;-78
2022/06/23 00:23:37;;;;;;;4.78;1.83;;;;;;;12.24;51.14;101496.50;5003998;28;20204;-77
2022/06/23 00:26:10;;;;;;;1.98;1.77;;;;;;;12.24;51.32;101499.13;4985337;28;20488;-77
2022/06/23 00:29:03;;;;;;;2.92;1.83;;;;;;;12.14;51.40;101495.16;4994738;28;20048;-79
2022/06/23 00:31:37;;;;;;;2.63;1.77;;;;;;;12.17;51.57;101499.41;5005400;28;20110;-78
2022/06/23 00:34:22;;;;;;;3.00;1.60;;;;;;;12.07;51.65;101491.03;5002470;28;20048;-78
2022/06/23 00:36:59;;;;;;;2.28;1.48;;;;;;;12.04;51.51;101488.53;5008655;28;20038;-76
2022/06/23 00:39:36;;;;;;;3.40;1.77;;;;;;;12.02;51.44;101480.75;5007852;28;20029;-77
2022/06/23 00:42:06;;;;;;;3.90;2.75;;;;;;;11.88;52.12;101475.97;4989741;28;21538;-78
2022/06/23 00:44:43;;;;;;;3.55;1.83;;;;;;;12.03;51.94;101476.34;5010163;28;20119;-78
2022/06/23 00:47:17;;;;;;;4.88;2.38;;;;;;;11.98;52.24;101478.28;5024393;28;20220;-76
2022/06/23 00:50:20;;;;;;;3.17;2.22;;;;;;;12.11;51.87;101484.78;4992897;28;20127;-78
2022/06/23 00:52:57;;;;;;;2.00;1.25;;;;;;;12.08;51.86;101487.50;4966100;28;20057;-79
2022/06/23 00:55:35;;;;;;;2.42;1.23;;;;;;;12.07;51.80;101480.56;4990136;28;20046;-79
2022/06/23 00:58:39;;;;;;;3.38;1.35;;;;;;;11.92;51.86;101474.13;5008524;28;20053;-78
2022/06/23 01:01:14;;;;;;;4.05;1.25;;;;;;;11.85;52.03;101468.25;5005258;28;20050;-78
2022/06/23 01:04:05;;;;;;;2.30;1.55;;;;;;;11.74;51.91;101470.34;5007065;28;20583;-79
2022/06/23 01:06:38;;;;;;;3.05;1.13;;;;;;;11.78;51.98;101472.00;4965816;28;20050;-78
2022/06/23 01:09:21;;;;;;;2.75;1.60;;;;;;;11.82;52.11;101472.72;5006426;28;20037;-77
2022/06/23 01:12:16;;;;;;;2.10;1.70;;;;;;;11.79;52.13;101471.06;4990549;28;20041;-76
2022/06/23 01:15:06;;;;;;;2.67;1.58;;;;;;;11.82;52.28;101480.56;4992976;28;20052;-79
2022/06/23 01:17:40;;;;;;;2.30;1.50;;;;;;;11.88;51.98;101483.84;4992026;28;20903;-80
2022/06/23 01:20:28;;;;;;;1.95;1.27;;;;;;;11.81;52.14;101479.72;5008120;28;20025;-76
2022/06/23 01:23:35;;;;;;;2.22;1.75;;;;;;;11.65;52.42;101481.16;5005161;28;20168;-77
2022/06/23 01:26:34;;;;;;;2.35;1.27;;;;;;;11.44;52.89;101483.59;5007179;28;20062;-77
2022/06/23 01:29:29;;;;;;;2.90;1.33;;;;;;;11.48;53.07;101486.09;4957651;28;20120;-77
2022/06/23 01:32:04;;;;;;;2.20;1.52;;;;;;;11.41;53.32;101486.31;4987684;28;20050;-78
2022/06/23 01:34:53;;;;;;;2.50;1.42;;;;;;;11.46;53.25;101484.41;4993539;28;20033;-77
2022/06/23 01:37:35;;;;;;;2.58;1.50;;;;;;;11.38;52.87;101481.19;5007868;28;20069;-78
2022/06/23 01:40:10;;;;;;;2.22;1.30;;;;;;;11.25;53.12;101472.03;5007643;28;20061;-80
2022/06/23 01:42:44;;;;;;;2.28;1.45;;;;;;;11.14;53.55;101479.41;4973789;28;20050;-79
2022/06/23 01:45:29;;;;;;;2.63;1.38;;;;;;;11.14;53.83;101463.69;5013671;28;20125;-80
2022/06/23 01:48:01;;;;;;;2.15;0.90;;;;;;;11.23;53.41;101466.00;5009544;28;20069;-77
2022/06/23 01:50:27;;;;;;;2.55;1.50;;;;;;;11.23;53.32;101468.63;4989593;28;20120;-78
2022/06/23 01:53:40;;;;;;;1.90;1.40;;;;;;;11.31;53.20;101465.72;5001427;28;20073;-76
2022/06/23 01:56:18;;;;;;;2.40;1.60;;;;;;;11.39;52.73;101471.56;5006622;28;20656;-74
2022/06/23 01:59:20;;;;;;;2.20;1.33;;;;;;;11.44;52.54;101472.25;4970526;28;20400;-77
2022/06/23 02:01:50;;;;;;;1.80;0.93;;;;;;;11.37;52.85;101461.16;4990193;28;20032;-78
2022/06/23 02:04:40;;;;;;;2.95;1.80;;;;;;;11.23;53.46;101466.00;5007138;28;20041;-77
2022/06/23 02:07:31;;;;;;;2.78;2.05;;;;;;;11.22;54.25;101475.63;5013194;28;20104;-79
2022/06/23 02:10:17;;;;;;;2.90;1.70;;;;;;;11.25;54.21;101472.03;4997724;28;20041;-78
2022/06/23 02:12:52;;;;;;;2.00;1.25;;;;;;;11.28;53.93;101469.31;4996936;28;20042;-75
2022/06/23 02:15:25;;;;;;;2.05;1.25;;;;;;;11.36;53.57;101464.69;4984777;28;20049;-77
2022/06/23 02:17:58;;;;;;;3.85;1.85;;;;;;;11.28;54.03;101465.84;5013480;28;20050;-78
2022/06/23 02:21:00;;;;;;;2.58;1.88;;;;;;;11.22;54.53;101466.94;4999530;28;20037;-77
2022/06/23 02:23:31;;;;;;;2.95;2.15;;;;;;;11.18;54.73;101471.38;5012132;28;20291;-77
2022/06/23 02:26:26;;;;;;;3.30;1.92;;;;;;;11.24;55.15;101470.31;4997912;28;20123;-79
2022/06/23 02:29:01;;;;;;;3.05;2.17;;;;;;;11.28;54.94;101464.06;4995505;28;20527;-78
2022/06/23 02:31:41;;;;;;;3.50;1.85;;;;;;;11.32;54.44;101470.91;5002381;28;20037;-77
2022/06/23 02:34:32;;;;;;;3.67;2.25;;;;;;;11.33;54.98;101469.16;4995510;28;20800;-78
2022/06/23 02:37:07;;;;;;;6.78;2.42;;;;;;;11.31;55.00;101471.84;4998554;28;20042;-79
2022/06/23 02:39:49;;;;;;;4.53;2.28;;;;;;;11.42;54.61;101474.94;4999463;28;20088;-77
2022/06/23 02:42:27;;;;;;;;;;;;;;;11.39;54.71;101472.41;4997010;28;20049;-78
2022/06/23 02:45:29;;;;;;;4.40;2.65;;;;;;;11.53;54.56;101471.97;4997682;28;19918;-78
2022/06/23 02:48:14;;;;;;;3.55;2.10;;;;;;;11.48;53.96;101471.25;5013374;28;20114;-78
2022/06/23 02:50:39;;;;;;;3.85;2.33;;;;;;;11.37;54.43;101473.38;4998513;28;20099;-76
2022/06/23 02:53:08;;;;;;;2.78;2.20;;;;;;;11.27;54.50;101470.22;4997512;28;20484;-77
2022/06/23 02:55:33;;;;;;;4.38;2.35;;;;;;;11.16;55.11;101459.28;5000157;28;20038;-79
2022/06/23 02:58:09;;;;;;;3.92;2.00;;;;;;;11.21;55.26;101460.81;4999666;28;20049;-78
2022/06/23 03:01:06;;;;;;;3.65;2.67;;;;;;;11.30;55.21;101459.66;5002294;28;20054;-80
2022/06/23 03:03:39;;;;;;;3.42;1.80;;;;;;;11.34;54.67;101456.03;4997267;28;20457;-78
2022/06/23 03:06:28;;;;;;;4.75;2.47;;;;;;;11.33;54.90;101456.94;5000688;28;20034;-77
2022/06/23 03:09:06;;;;;;;4.03;2.50;;;;;;;11.33;55.01;101451.72;4998806;28;20030;-78
2022/06/23 03:11:54;;;;;;;4.50;2.47;;;;;;;11.45;55.09;101458.28;5018699;28;20061;-80
2022/06/23 03:14:44;;;;;;;3.60;2.70;;;;;;;11.44;54.98;101461.78;4985299;28;20385;-78
2022/06/23 03:17:13;;;;;;;5.18;3.13;;;;;;;11.36;55.65;101462.06;4982994;28;20053;-78
2022/06/23 03:19:47;;;;;;;4.30;2.95;;;;;;;11.44;55.72;101457.44;5000112;28;20527;-78
2022/06/23 03:22:30;;;;;;;4.03;2.35;;;;;;;11.53;55.61;101458.00;5014306;28;20053;-79
2022/06/23 03:25:28;;;;;;;5.68;2.72;;;;;;;11.60;55.50;101457.75;5012941;28;20155;-78
2022/06/23 03:28:03;;;;;;;4.45;2.80;;;;;;;11.54;55.44;101462.34;4989249;28;20509;-78
2022/06/23 03:31:07;;;;;;;7.25;3.60;;;;;;;11.64;55.93;101463.72;5015492;28;20038;-79
2022/06/23 03:33:44;;;;;;;7.03;3.58;;;;;;;11.70;55.91;101463.50;4995575;28;20065;-78
2022/06/23 03:36:13;;;;;;;5.13;3.25;;;;;;;11.76;55.96;101463.31;5000848;28;20042;-76
2022/06/23 03:42:03;;;;;;;4.40;3.10;;;;;;;11.88;55.95;101472.50;4991672;28;20077;-78
2022/06/23 03:44:53;;;;;;;4.57;3.15;;;;;;;11.91;55.96;101476.78;5003545;28;20105;-79
2022/06/23 03:47:46;;;;;;;4.47;3.35;;;;;;;11.97;56.17;101477.41;5022181;28;20219;-78
2022/06/23 03:50:46;;;;;;;4.47;3.35;;;;;;;12.06;55.75;101477.06;5017064;28;20127;-78
2022/06/23 03:53:38;;;;;;;4.18;2.85;;;;;;;12.19;55.39;101480.09;5004784;28;20063;-78
2022/06/23 03:56:41;;;;;;;5.47;2.92;;;;;;;12.22;55.37;101469.53;5029629;28;20045;-79
2022/06/23 03:59:54;;;;;;;4.50;3.25;;;;;;;12.27;54.90;101482.44;5012678;28;20037;-78
2022/06/23 04:02:28;;;;;;;6.65;3.97;;;;;;;12.21;55.39;101486.13;5030268;28;20037;-78
2022/06/23 04:05:12;;;;;;;6.60;3.75;;;;;;;12.32;55.10;101482.28;5014643;28;20034;-78
2022/06/23 04:07:55;;;;;;;5.63;3.28;;;;;;;12.38;55.17;101479.41;5014835;28;20049;-78
2022/06/23 04:10:30;;;;;;;5.75;3.63;;;;;;;12.50;54.87;101479.78;5029153;28;20034;-78
2022/06/23 04:13:02;;;;;;;4.85;3.90;;;;;;;12.52;54.76;101481.53;4997130;28;20046;-79
2022/06/23 04:15:34;;;;;;;5.68;3.75;;;;;;;12.59;54.58;101470.72;5000433;28;20064;-79
2022/06/23 04:18:09;;;;;;;3.92;3.50;;;;;;;12.47;54.62;101473.84;5028619;28;20089;-79
2022/06/23 04:20:40;;;;;;;4.85;4.30;;;;;;;12.72;54.20;101475.53;4990089;28;20115;-76
2022/06/23 04:23:23;;;;;;;5.95;4.00;;;;;;;12.79;54.21;101480.47;5018254;28;20488;-76
2022/06/23 04:25:57;;;;;;;4.47;3.63;;;;;;;12.90;53.48;101474.78;5018645;28;20042;-77
2022/06/23 04:28:36;;;;;;;3.90;3.50;;;;;;;12.87;53.43;101474.91;5018089;28;20030;-77
2022/06/23 04:31:05;;;;;;;5.38;3.45;;;;;;;13.04;53.34;101467.19;5002223;28;20044;-78
2022/06/23 04:33:37;;;;;;;4.82;3.90;;;;;;;13.17;52.63;101467.56;4986415;28;20574;-77
2022/06/23 04:36:03;;;;;;;5.05;4.15;;;;;;;13.20;52.42;101459.53;5004682;28;20023;-78
2022/06/23 04:38:41;;;;;;;8.27;4.05;;;;;;;13.41;52.28;101464.81;5003852;28;20459;-81
2022/06/23 04:41:30;;;;;;;6.70;3.40;;;;;;;13.48;51.96;101472.38;4992068;28;20064;-78
2022/06/23 04:44:01;;;;;;;4.57;3.35;;;;;;;13.49;51.44;101463.56;5020348;28;20058;-79
2022/06/23 04:46:40;;;;;;;4.90;3.42;;;;;;;13.48;51.96;101475.00;5007351;28;20037;-79
2022/06/23 04:49:23;;;;;;;4.55;3.42;;;;;;;13.71;51.35;101470.53;5004758;28;20112;-78
2022/06/23 04:51:55;;;;;;;4.80;3.33;;;;;;;13.89;51.06;101467.09;5004516;28;20065;-78
2022/06/23 04:54:26;;;;;;;7.18;3.50;;;;;;;13.89;50.17;101467.09;5006710;28;20030;-79
2022/06/23 04:56:57;;;;;;;4.97;3.83;;;;;;;13.94;50.59;101477.41;4979917;28;20687;-77
2022/06/23 04:59:27;;;;;;;5.47;3.97;;;;;;;13.97;50.56;101474.66;4991949;28;20038;-79
2022/06/23 05:01:56;;;;;;;5.10;3.58;;;;;;;14.12;50.31;101473.97;4988853;28;20042;-78
2022/06/23 05:04:38;;;;;;;5.78;3.92;;;;;;;14.19;49.87;101471.91;5004642;28;20107;-78
2022/06/23 05:07:16;;;;;;;5.32;3.92;;;;;;;14.44;49.87;101471.66;5004462;28;20113;-78
2022/06/23 05:09:43;;;;;;;5.40;3.42;;;;;;;15.61;46.51;101468.53;5000160;28;20715;-77
2022/06/23 05:12:26;;;;;;;3.53;3.03;;;;;;;17.71;42.20;101473.56;4982677;28;20049;-77
2022/06/23 05:15:11;;;;;;;4.07;3.28;;;;;;;18.95;39.17;101475.50;4993351;28;20173;-78
2022/06/23 05:17:47;;;;;;;6.55;2.80;;;;;;;20.35;36.36;101472.03;4971961;28;20042;-79
2022/06/23 05:20:20;;;;;;;4.28;3.35;;;;;;;21.39;34.74;101467.91;5005895;28;20087;-75
2022/06/23 05:22:47;;;;;;;5.38;2.13;;;;;;;22.43;34.13;101457.03;4990969;28;20096;-80
2022/06/23 05:25:15;;;;;;;3.70;2.97;;;;;;;22.44;31.57;101458.72;5010062;28;20030;-77
2022/06/23 05:27:45;;;;;;;9.95;3.42;;;;;;;22.15;32.15;101461.94;4992139;28;20072;-77
2022/06/23 05:30:17;;;;;;;3.70;3.38;;;;;;;23.17;31.63;101456.28;5008301;28;20226;-79
2022/06/23 05:32:48;;;;;;;;;;;;;;;23.23;30.93;101444.22;4990833;28;20046;-79
2022/06/23 05:35:46;;;;;;;4.53;3.25;;;;;;;22.81;31.91;101458.41;5021542;28;20417;-78
2022/06/23 05:38:12;;;;;;;2.75;2.00;;;;;;;23.04;31.80;101459.13;4992175;28;20087;-76
2022/06/23 05:41:10;;;;;;;3.92;2.85;;;;;;;23.77;29.91;101456.50;5018612;28;20112;-81
2022/06/23 05:43:40;;;;;;;8.95;2.67;;;;;;;24.97;28.35;101457.34;4988044;28;20058;-81
2022/06/23 05:46:06;;;;;;;2.92;2.15;;;;;;;26.10;27.72;101454.75;5009145;28;20049;-77
2022/06/23 05:48:52;;;;;;;3.63;2.85;;;;;;;26.14;26.40;101458.81;5005840;28;20034;-79
2022/06/23 05:51:23;;;;;;;3.42;2.30;;;;;;;26.27;26.70;101468.16;5008220;28;20037;-80
2022/06/23 05:54:15;;;;;;;3.95;1.77;;;;;;;26.79;26.94;101456.78;4965056;28;20555;-79
2022/06/23 05:56:47;;;;;;;5.60;2.95;;;;;;;26.24;25.88;101449.69;5007348;28;20495;-79
2022/06/23 05:59:27;;;;;;;4.88;2.63;;;;;;;26.47;26.42;101454.66;5008746;28;20058;-76
2022/06/23 06:02:16;;;;;;;5.53;2.20;;;;;;;25.56;27.69;101465.25;5002107;28;20065;-75
2022/06/23 06:04:50;;;;;;;2.78;2.58;;;;;;;24.83;28.79;101455.03;5008195;28;20123;-74
2022/06/23 06:07:19;;;;;;;3.60;3.28;;;;;;;25.00;28.39;101462.38;5004650;28;20033;-79
2022/06/23 06:09:45;;;;;;;4.03;3.05;;;;;;;25.06;28.91;101466.31;4991015;28;20866;-80
2022/06/23 06:12:18;;;;;;;5.78;3.00;;;;;;;25.45;28.49;101460.88;5009105;28;20046;-77
2022/06/23 06:15:01;;;;;;;5.72;3.10;;;;;;;25.71;27.98;101461.13;4991426;28;20420;-79
2022/06/23 06:17:30;;;;;;;4.22;2.97;;;;;;;25.42;28.34;101458.47;5004040;28;20046;-78
2022/06/23 06:19:59;;;;;;;2.90;2.58;;;;;;;24.90;28.38;101456.16;5009763;28;20061;-78
2022/06/23 06:22:51;;;;;;;5.30;3.35;;;;;;;25.78;27.34;101464.88;5023944;28;20034;-78
2022/06/23 06:25:41;;;;;;;7.32;3.05;;;;;;;26.62;26.80;101457.66;5007479;28;20527;-79
2022/06/23 06:28:27;;;;;;;3.00;2.70;;;;;;;26.73;26.42;101456.56;4989178;28;20456;-78
2022/06/23 06:30:59;;;;;;;5.95;2.67;;;;;;;26.43;26.56;101448.72;4991493;28;20029;-77
2022/06/23 06:33:43;;;;;;;5.07;3.00;;;;;;;26.50;27.08;101451.66;5001454;28;20046;-78
2022/06/23 06:36:27;;;;;;;6.60;2.85;;;;;;;26.87;26.94;101447.97;4988165;28;20034;-77
2022/06/23 06:39:00;;;;;;;3.55;2.75;;;;;;;27.32;26.27;101444.31;4999166;28;20115;-79
2022/06/23 06:41:26;;;;;;;8.90;3.33;;;;;;;28.31;24.90;101449.09;5005884;28;20097;-79
2022/06/23 06:43:52;;;;;;;3.88;3.00;;;;;;;29.18;23.26;101442.44;5002697;28;20103;-79
2022/06/23 06:46:17;;;;;;;3.60;2.40;;;;;;;28.89;23.78;101441.09;5002827;28;20263;-78
2022/06/23 06:48:43;;;;;;;5.30;3.58;;;;;;;28.55;24.76;101436.72;5001786;28;20575;-76
2022/06/23 06:51:23;;;;;;;2.72;1.95;;;;;;;28.81;24.85;101438.41;5006792;28;20813;-78
2022/06/23 06:53:54;;;;;;;3.50;2.10;;;;;;;29.92;22.71;101430.41;5001081;28;20041;-77
2022/06/23 06:56:32;;;;;;;3.15;2.17;;;;;;;29.40;22.64;101439.03;5007142;28;20061;-79
2022/06/23 06:59:13;;;;;;;4.88;2.63;;;;;;;28.98;23.90;101432.00;4989225;28;20046;-78
2022/06/23 07:01:41;;;;;;;6.47;3.08;;;;;;;29.68;22.47;101435.91;5008399;28;20038;-77
2022/06/23 07:04:23;;;;;;;6.78;2.85;;;;;;;29.79;22.15;101438.22;5007789;28;20038;-78
2022/06/23 07:07:05;;;;;;;3.75;2.28;;;;;;;30.04;22.56;101430.00;4995453;28;20061;-78
2022/06/23 07:09:37;;;;;;;5.30;3.15;;;;;;;30.65;21.49;101422.06;5006354;28;20341;-77
2022/06/23 07:12:12;;;;;;;3.20;2.17;;;;;;;29.97;21.72;101428.03;5002486;28;20474;-77
2022/06/23 07:15:13;;;;;;;6.60;2.97;;;;;;;29.12;23.13;101425.94;5006890;28;20046;-76
2022/06/23 07:17:46;;;;;;;25.80;11.00;;;;;;;30.21;21.56;101426.22;4954828;28;20042;-79
2022/06/23 07:20:18;;;;;;;6.10;2.30;;;;;;;30.07;21.49;101430.50;4987488;28;20125;-77
2022/06/23 07:22:58;;;;;;;11.13;3.22;;;;;;;29.83;21.71;101427.94;4989490;28;20049;-77
2022/06/23 07:25:28;;;;;;;4.43;2.45;;;;;;;29.63;22.69;101432.91;4991893;28;20038;-78
2022/06/23 07:28:00;;;;;;;6.13;2.08;;;;;;;30.44;20.90;101425.38;5007611;28;20109;-78
2022/06/23 07:30:32;;;;;;;3.40;1.88;;;;;;;30.41;21.12;101433.84;5010262;28;20049;-75
2022/06/23 07:32:57;;;;;;;3.83;1.85;;;;;;;29.80;21.32;101426.44;5005746;28;20520;-76
2022/06/23 07:35:40;;;;;;;4.03;1.98;;;;;;;28.97;21.89;101435.72;4994158;28;20045;-79
2022/06/23 07:38:12;;;;;;;14.85;7.78;;;;;;;28.66;22.01;101431.03;5022202;28;20066;-78
2022/06/23 07:40:56;;;;;;;4.63;1.80;;;;;;;28.73;22.83;101426.66;5022547;28;20121;-75
2022/06/23 07:43:36;;;;;;;3.53;2.05;;;;;;;28.83;23.57;101431.84;5009811;28;20132;-78
2022/06/23 07:46:02;;;;;;;7.53;2.28;;;;;;;29.65;22.06;101430.88;5007699;28;20520;-77
2022/06/23 07:48:32;;;;;;;3.50;1.88;;;;;;;30.38;21.59;101426.97;4990506;28;20073;-80
2022/06/23 07:51:01;;;;;;;5.03;2.13;;;;;;;30.36;21.47;101418.19;4985688;28;20038;-77
2022/06/23 07:53:42;;;;;;;4.68;2.80;;;;;;;30.08;22.04;101420.56;5008503;28;20060;-77
2022/06/23 07:56:14;;;;;;;4.28;2.15;;;;;;;30.43;21.42;101413.75;5006911;28;20045;-76
2022/06/23 07:58:44;;;;;;;5.65;3.00;;;;;;;31.17;20.70;101416.66;5005694;28;20081;-79
2022/06/23 08:01:30;;;;;;;8.80;2.60;;;;;;;31.45;20.37;101424.13;5002140;28;21239;-76
2022/06/23 08:04:09;;;;;;;5.13;2.83;;;;;;;31.39;20.02;101420.28;5006296;28;20045;-75
2022/06/23 08:06:36;;;;;;;6.30;2.83;;;;;;;30.91;20.46;101427.03;5023026;28;20064;-75
2022/06/23 08:09:28;;;;;;;3.45;2.60;;;;;;;30.91;20.94;101418.94;5005027;28;20050;-77
2022/06/23 08:16:49;;;;;;;9.00;3.22;;;;;;;32.31;19.74;101409.97;5003970;28;20100;-77
2022/06/23 08:17:46;;;;;;;3.92;2.72;;;;;;;32.21;19.18;101408.41;5002907;28;20141;-77
2022/06/23 08:20:15;;;;;;;3.22;2.58;;;;;;;32.61;19.02;101405.25;5005839;28;20041;-75
2022/06/23 08:22:43;;;;;;;5.65;2.38;;;;;;;32.14;19.24;101410.22;5007118;28;20145;-74
2022/06/23 08:25:09;;;;;;;3.63;2.28;;;;;;;31.82;19.97;101400.69;5007076;28;20069;-77
2022/06/23 08:27:40;;;;;;;5.13;1.95;;;;;;;32.11;20.11;101407.06;5005908;28;20061;-78
2022/06/23 08:30:07;;;;;;;;;;;;;;;33.59;18.91;101403.41;5001692;28;20173;-76
2022/06/23 08:32:37;;;;;;;9.20;2.22;;;;;;;33.48;19.27;101395.84;5017692;28;19921;-76
2022/06/23 08:35:05;;;;;;;3.42;1.75;;;;;;;33.27;18.98;101406.81;4988802;28;20104;-78
2022/06/23 08:37:54;;;;;;;2.45;2.10;;;;;;;32.49;20.23;101394.13;5006142;28;20129;-75
2022/06/23 08:40:33;;;;;;;7.60;2.80;;;;;;;32.97;18.84;101398.91;4991883;28;20424;-77
2022/06/23 08:43:21;;;;;;;4.82;3.00;;;;;;;32.20;19.54;101395.91;5001361;28;20042;-76
2022/06/23 08:45:50;;;;;;;4.35;1.85;;;;;;;32.35;19.47;101387.75;4983808;28;20034;-77
2022/06/23 08:48:27;;;;;;;5.07;2.53;;;;;;;32.24;19.32;101385.56;4981367;28;20289;-77
2022/06/23 08:50:59;;;;;;;4.35;2.55;;;;;;;32.28;19.63;101383.31;5003381;28;20050;-78
2022/06/23 08:53:27;;;;;;;9.18;3.38;;;;;;;31.60;19.45;101392.53;5001840;28;20049;-77
2022/06/23 08:56:09;;;;;;;2.47;2.28;;;;;;;31.65;19.67;101383.03;5001608;28;20038;-76
2022/06/23 08:59:10;;;;;;;3.13;2.03;;;;;;;32.33;19.73;101375.44;5002350;28;20057;-78
2022/06/23 09:01:56;;;;;;;2.47;1.65;;;;;;;32.98;19.11;101381.59;4998027;28;20038;-77
2022/06/23 09:04:43;;;;;;;3.30;1.50;;;;;;;32.67;17.97;101376.56;5017241;28;20169;-78
2022/06/23 09:07:40;;;;;;;3.40;2.35;;;;;;;32.60;18.84;101379.22;4987990;28;21129;-75
2022/06/23 09:10:41;;;;;;;7.80;1.58;;;;;;;32.91;18.29;101383.44;5003680;28;20045;-78
2022/06/23 09:13:18;;;;;;;3.10;1.80;;;;;;;32.25;19.48;101381.81;4986705;28;20433;-76
2022/06/23 09:15:52;;;;;;;8.60;1.95;;;;;;;33.25;18.54;101380.69;5021489;28;20176;-80
2022/06/23 09:19:15;;;;;;;1.88;1.48;;;;;;;33.42;17.63;101372.28;5005463;28;20068;-78
2022/06/23 09:21:53;;;;;;;2.80;1.40;;;;;;;34.18;16.76;101365.84;4934315;28;20035;-75
2022/06/23 09:24:28;;;;;;;6.65;1.50;;;;;;;32.84;16.54;101370.69;4964689;28;20054;-78
2022/06/23 09:27:23;;;;;;;4.35;1.20;;;;;;;31.52;18.06;101364.81;4990470;28;20489;-78
2022/06/23 09:30:04;;;;;;;2.00;1.50;;;;;;;31.19;18.47;101357.91;5020207;28;20516;-77
2022/06/23 09:32:53;;;;;;;3.55;1.27;;;;;;;31.52;17.94;101359.41;4998097;28;20162;-79
2022/06/23 09:35:49;;;;;;;3.72;1.73;;;;;;;30.56;18.75;101353.84;5018226;28;20034;-78
2022/06/23 09:38:43;;;;;;;4.95;1.33;;;;;;;30.31;19.13;101355.88;4988935;28;20536;-78
2022/06/23 09:41:34;;;;;;;4.10;1.50;;;;;;;30.06;19.10;101353.34;5000767;28;20026;-76
2022/06/23 09:44:30;;;;;;;5.15;1.42;;;;;;;31.10;18.92;101352.81;5004421;28;20084;-76
2022/06/23 09:47:14;;;;;;;2.30;1.45;;;;;;;30.84;19.12;101350.53;4985092;28;20034;-80
2022/06/23 09:49:46;;;;;;;3.72;1.05;;;;;;;30.43;19.45;101349.03;4991670;28;20029;-77
2022/06/23 09:52:46;;;;;;;3.28;1.38;;;;;;;30.37;19.90;101347.91;5004768;28;20791;-80
2022/06/23 09:55:41;;;;;;;4.40;1.23;;;;;;;29.44;19.25;101351.50;5019177;28;20041;-77
2022/06/23 09:58:28;;;;;;;3.20;1.20;;;;;;;28.20;20.61;101354.53;5001009;28;20441;-78
2022/06/23 10:01:02;;;;;;;2.45;1.30;;;;;;;27.88;21.47;101348.91;5006356;28;20471;-78
2022/06/23 10:03:54;;;;;;;2.67;0.75;;;;;;;27.53;21.03;101352.63;5006427;28;20055;-78
2022/06/23 10:07:00;;;;;;;3.30;1.63;;;;;;;27.03;22.25;101351.53;5019787;28;20037;-77
2022/06/23 10:09:47;;;;;;;7.32;1.85;;;;;;;26.41;24.21;101343.53;5004627;28;20046;-77
2022/06/23 10:12:31;;;;;;;4.45;1.00;;;;;;;26.07;22.42;101338.88;5002379;28;20097;-77
2022/06/23 10:14:59;;;;;;;4.05;0.95;;;;;;;26.84;22.32;101341.84;5004938;28;20034;-76
2022/06/23 10:17:45;;;;;;;3.50;0.93;;;;;;;27.29;21.68;101339.94;5003838;28;20045;-77
2022/06/23 10:20:35;;;;;;;1.48;1.20;;;;;;;26.76;21.96;101339.13;5005794;28;20604;-80
2022/06/23 10:23:12;;;;;;;2.25;1.02;;;;;;;27.08;22.00;101335.78;5001173;28;20053;-77
2022/06/23 10:26:03;;;;;;;2.15;0.68;;;;;;;27.07;22.47;101344.00;5005412;28;20742;-78
2022/06/23 10:28:41;;;;;;;1.27;0.73;;;;;;;27.37;21.45;101329.25;5002830;28;20041;-77
2022/06/23 10:31:37;;;;;;;1.45;0.90;;;;;;;26.87;21.04;101321.91;5003712;28;20172;-77
2022/06/23 10:34:32;;;;;;;4.20;1.15;;;;;;;27.20;21.21;101300.66;4984987;28;20061;-77
2022/06/23 10:37:16;;;;;;;1.65;1.02;;;;;;;27.53;21.30;101307.00;4983472;28;20103;-76
2022/06/23 10:40:17;;;;;;;3.40;1.00;;;;;;;27.22;21.20;101301.34;5013572;28;20093;-78
2022/06/23 10:43:20;;;;;;;3.80;1.52;;;;;;;27.71;22.17;101304.22;5018727;28;20038;-77
2022/06/23 10:46:01;;;;;;;2.60;1.10;;;;;;;28.51;21.51;101295.56;5006083;28;20045;-77
2022/06/23 10:48:50;;;;;;;8.98;1.40;;;;;;;28.63;20.28;101296.06;5004500;28;20034;-78
2022/06/23 10:51:42;;;;;;;4.05;1.35;;;;;;;28.79;20.30;101305.94;5001371;28;20034;-75
2022/06/23 10:54:32;;;;;;;4.07;0.88;;;;;;;28.74;20.31;101301.91;5000702;28;20051;-78
2022/06/23 10:57:36;;;;;;;2.87;1.20;;;;;;;28.22;20.94;101298.78;5000979;28;20597;-75
2022/06/23 11:00:12;;;;;;;2.28;0.88;;;;;;;27.45;21.82;101297.09;5014250;28;20034;-76
2022/06/23 11:03:04;;;;;;;4.28;1.10;;;;;;;27.78;21.48;101299.88;4992473;28;20048;-76
2022/06/23 11:06:05;;;;;;;2.72;0.98;;;;;;;28.10;21.46;101296.38;5003368;28;20034;-76
2022/06/23 11:08:41;;;;;;;3.30;1.25;;;;;;;27.60;21.44;101291.91;4963576;28;20203;-80
2022/06/23 11:11:07;;;;;;;2.45;1.23;;;;;;;27.71;20.99;101301.53;5001256;28;20040;-77
2022/06/23 11:14:03;;;;;;;2.97;1.30;;;;;;;28.05;20.93;101298.72;4996985;28;20046;-77
2022/06/23 11:16:47;;;;;;;3.20;1.00;;;;;;;27.70;21.72;101289.13;4984212;28;20123;-77
2022/06/23 11:19:51;;;;;;;6.15;1.10;;;;;;;28.37;21.26;101285.47;4996869;28;20050;-77
2022/06/23 11:22:16;;;;;;;3.85;1.08;;;;;;;28.65;20.38;101284.13;4933539;28;20806;-78
2022/06/23 11:24:56;;;;;;;2.00;1.20;;;;;;;28.88;20.35;101278.88;4995671;28;20077;-77
2022/06/23 11:28:06;;;;;;;2.05;0.93;;;;;;;28.26;21.49;101295.56;4994301;28;20152;-78
2022/06/23 11:30:55;;;;;;;2.15;0.77;;;;;;;28.48;20.52;101272.53;4950594;28;20034;-77
2022/06/23 11:33:27;;;;;;;5.43;1.30;;;;;;;28.48;20.14;101285.16;4996073;28;20045;-79
2022/06/23 11:36:02;;;;;;;3.40;0.98;;;;;;;28.61;20.50;101269.28;4996490;28;20551;-77
2022/06/23 11:38:50;;;;;;;3.60;1.02;;;;;;;28.51;20.56;101260.59;4997899;28;20034;-76
2022/06/23 11:41:37;;;;;;;1.15;0.90;;;;;;;28.90;20.60;101271.47;4998774;28;20034;-81
2022/06/23 11:44:15;;;;;;;4.65;1.67;;;;;;;29.45;20.70;101275.09;5017201;28;20091;-77
2022/06/23 11:46:43;;;;;;;3.00;1.02;;;;;;;29.18;20.36;101267.50;5013699;28;20061;-79
2022/06/23 11:49:31;;;;;;;4.45;1.00;;;;;;;29.33;19.56;101255.81;5025894;28;20084;-76
2022/06/23 11:52:20;;;;;;;2.60;1.20;;;;;;;28.84;19.58;101256.00;5015511;28;20048;-79
2022/06/23 11:55:22;;;;;;;4.13;1.13;;;;;;;29.01;20.26;101256.75;5011493;28;20058;-79
2022/06/23 11:58:07;;;;;;;3.17;1.10;;;;;;;28.90;20.16;101243.69;4997934;28;20042;-77
2022/06/23 12:04:52;;;;;;;2.70;1.38;;;;;;;29.57;19.55;101246.75;5019666;28;20036;-78
2022/06/23 12:07:43;;;;;;;3.60;1.20;;;;;;;29.80;19.39;101245.94;4983850;28;20056;-77
2022/06/23 12:10:21;;;;;;;3.85;1.10;;;;;;;30.28;19.24;101238.44;5023330;28;20041;-79
2022/06/23 12:13:34;;;;;;;2.83;1.10;;;;;;;30.34;19.00;101248.50;5008249;28;20050;-75
2022/06/23 12:16:02;;;;;;;3.40;0.82;;;;;;;29.91;19.11;101242.81;5012121;28;20034;-80
2022/06/23 12:19:45;;;;;;;5.53;1.10;;;;;;;29.92;20.00;101235.56;4991700;28;20041;-79
2022/06/23 12:22:25;;;;;;;;;;;;;;;30.35;18.93;101234.00;4897946;29;20094;-77
2022/06/23 12:25:22;;;;;;;2.22;1.13;;;;;;;30.78;19.17;101228.84;5029648;28;19917;-77
2022/06/23 12:28:27;;;;;;;3.00;1.00;;;;;;;30.42;19.49;101227.88;4985942;28;20163;-78
2022/06/23 12:31:23;;;;;;;3.67;1.92;;;;;;;30.78;19.95;101230.72;4993944;28;20038;-78
2022/06/23 12:34:51;;;;;;;3.40;1.30;;;;;;;30.61;19.08;101238.16;4954887;28;20054;-75
2022/06/23 12:37:52;;;;;;;2.75;1.50;;;;;;;30.50;18.48;101233.19;4940514;28;20044;-78
2022/06/23 12:40:27;;;;;;;3.15;0.90;;;;;;;31.21;18.77;101226.28;4951251;28;20043;-79
2022/06/23 12:43:22;;;;;;;3.75;1.27;;;;;;;31.73;17.97;101204.59;4978652;28;20069;-76